Airfield :
LOGIN :

Register | Disclaimer

   EN    FR    IT 

 










Legend :    VFR   Marginal VFR   IFR   Intensive IFR   Very Intensive IFR
Visi :
Ceiling :
>= 8 km
>= 3000ft
5 to 8 km
1000 to 3000 ft
1500m to 5 km
500 to 1000 ft
800 to 1500m
200 to 500 ft
< 800m
< 200 ft
Symbols :   Thunderstorms  Fog  Heavy snow  Heavy precipitations  Wind > 20 kt
SIGMETs :     Misc.  Thunderstorms  Icing  Turbulence  Mountain Waves  Volcanic Ashes







- Airport Elevation : 1213 ft
- IATA code : SCQ


LEST - Santiago de Compostela

CURRENT METAR :
  • 171830Z 02011KT 340V060 9999 FEW025 19/14 Q1020 NOSIG

EXPIRED METARs :
  • 171800Z 02012KT 340V070 9999 FEW025 19/14 Q1019 NOSIG
  • 171730Z 02013KT 340V050 9999 FEW025 20/14 Q1019 NOSIG
  • 171700Z 01013KT 340V050 9999 FEW025 20/15 Q1019 NOSIG
  • 171630Z 01013KT 340V050 9999 FEW025 21/15 Q1019 NOSIG
  • 171600Z 01012KT 340V040 9999 FEW025 21/15 Q1019 NOSIG

TAF TAF LEST
Valid from the 17 at 18:00 until the 18 at 18:00 UTC


171700Z 1718/1818 01010KT 9999 SCT020 TX23/1814Z TN11/1806Z
PROB30
TEMPO 1718/1720 03015G25KT
BECMG 1721/1724 VRB06KT
PROB30
TEMPO 1800/1806 3000 BR BKN008
PROB30
TEMPO 1806/1812 BKN010
PROB40
TEMPO 1814/1818 02010KT
No reported NOTAMs for that airfield.
3 SIGMETs reported for the Madrid FIR (LECM) :
 
Embedded thunderstorms
LECM SIGMET 7 VALID 171719/171900 LEVA
LECM MADRID FIR/UIR EMBD TS OBS AT 1719Z WI N3829 W00245 - N3718 W00252 - N3716 W00215 - N3823 W00157 - N3829 W00245 TOP FL410 MOV S NC=
Embedded thunderstorms
LECM SIGMET 6 VALID 171600/171800 LEVA
LECM MADRID FIR/UIR EMBD TS OBS AT 1542Z E OF LINE N4112 W00147 - N3953 W00153 TOP FL440 STNR NC=
Embedded thunderstorms
LECM SIGMET 5 VALID 171600/171800 LEVA
LECM MADRID FIR/UIR EMBD TS OBS AT 1537Z WI N4033 W00444 - N4014 W00401 - N4120 W00242 - N4115 W00151 - N42 W00147 - N4204 W00324 - N4033 W00444 TOP FL400 STNR NC=



MET'MAP, your aeronautical weather chart ! - Copyright ORBIFLY December 2007 - Disclaimer

ORBIFLY MET'MAP TEAM :

Programming & Development : Alexandra Zaïnal
Concept & Development : Baudouin d'Aumeries
Co-Development & Prog : Marc-Olivier Méhu
Technical & hardware support : Manuel Goepfert

Contact : metmap@orbifly.com




SOURCES & CREDITS :

   NOAA